Terminal Aerodrome Forecast
Issued by NWS Shreveport, LA

Current Version | Previous Version | Text Only | Print | Product List | Glossary On
Versions: 1 2 3 4 5 6 7 8 9 10 11 12 13 14 15 16 17
000
FTUS44 KSHV 180900 AAA
TAFTXK
TAF AMD
KTXK 180919Z 1809/1906 VRB04KT P6SM BKN080
     FM181900 18005KT P6SM VCTS BKN050CB BKN150
     FM190300 14003KT P6SM BKN060 BKN120=

USA.gov is the U.S. government's official web portal to all federal, state and local government web resources and services.